Hebron, IN (46341)

12:27 PM CDT on September 19, 2014 (GMT -0500)
KINHEBRO3 | Change Station
CLOSE
Current Station
Personal Weather Station
Location: Hebron, IN
Elevation: 705 ft
Nearby Weather Stations

Elev 705 ft 41.32 °N, 87.20 °W | Updated 5 minutes ago

Clear
Clear
76.8 °F
Feels Like 78 °F
N
6.0
Wind Variable Wind from SSE

Today
High -- | Low -- °F
--% Chance of Precip.
Yesterday
High -- | Low -- °F
Precip. -- in
6:33 AM 6:51 PM
Waning Crescent, 18% visible
Pressure 30.17 in
Visibility 10.0 miles
Clouds Clear
Heat Index 78 °F
Dew Point 49 °F
Humidity 38%
Rainfall 0.00 in
Snow Depth Not available.
UV 7 out of 12
Pollen 6.20 out of 12
Air Quality Not available.
Flu Activity Not available.
METAR KVPZ 191653Z AUTO 17010KT 10SM CLR 21/10 A3017 RMK AO2 SLP217 T02060100 TSNO

More Conditions Fewer Conditions

Pressure 30.17 in
Visibility 10.0 miles
Clouds Clear
Heat Index 78 °F
Dew Point 49 °F
Humidity 38%
Rainfall 0.00 in
Snow Depth Not available.
UV 7 out of 12
Pollen 6.20 out of 12
Air Quality Not available.
Flu Activity Not available.
METAR KVPZ 191653Z AUTO 17010KT 10SM CLR 21/10 A3017 RMK AO2 SLP217 T02060100 TSNO

More Conditions Fewer Conditions

10-Day Weather Forecast

Almanac

Astronomy

Sep. 19, 2014 Rise Set
Actual Time 6:33 AM CDT 6:51 PM CDT
Civil Twilight 6:05 AM CDT 7:18 PM CDT
Nautical Twilight 5:33 AM CDT 7:51 PM CDT
Astronomical Twilight 4:59 AM CDT 8:24 PM CDT
Moon 2:15 AM CDT 4:21 PM CDT
Length of Visible Light 13h 13m
Length of Day
12h 17m
Tomorrow will be 2m 44s shorter.
Waning Crescent, 18% of the Moon is Illuminated
Today
Waning Crescent
Sep 24
New
Oct 1
First Quarter
Oct 8
Full
Oct 15
Last Quarter

Today's Extremes

State Highs State Lows

Community

WunderPhotos

Upload Photos

1,754,658 photos uploaded!

Nearby

Snow Depth

Station Depth Elevation
No new snow has been reported.

Earthquake Activity

City Distance Mag. Time & Date
No recent earthquake activity has been reported nearby.
Minimum magnitude displayed is 2.5.

Coastal Water Temperatures

Place Temperature
No Stations Reporting

Nearby Weather Stations